Time;durP1;ratioP1;P1;durP2;ratioP2;P2;SDS_P1;SDS_P2;PMS_P1;PMS_P2;Temp;Humidity;BMP_temperature;BMP_pressure;BME280_temperature;BME280_humidity;BME280_pressure;Samples;Min_cycle;Max_cycle;Signal;HPM_P1;HPM_P2
2021/08/01 00:01:44;;;;;;;4.85;2.50;;;;;;;14.47;88.18;100150.00;125318;1093;64281;-83
2021/08/01 00:04:11;;;;;;;3.83;2.03;;;;;;;14.46;88.06;100150.21;125378;1093;64387;-83
2021/08/01 00:06:39;;;;;;;4.75;2.40;;;;;;;14.45;88.28;100154.73;125290;1092;64281;-81
2021/08/01 00:09:07;;;;;;;3.17;2.07;;;;;;;14.44;88.56;100160.28;125293;1093;64231;-82
2021/08/01 00:11:34;;;;;;;4.27;2.27;;;;;;;14.42;88.36;100160.48;125335;1093;64265;-82
2021/08/01 00:14:01;;;;;;;3.97;2.40;;;;;;;14.39;88.24;100168.12;125321;1093;64243;-82
2021/08/01 00:16:28;;;;;;;5.93;2.47;;;;;;;14.37;88.92;100172.84;125378;1092;64230;-82
2021/08/01 00:18:57;;;;;;;3.90;1.90;;;;;;;14.37;88.77;100167.52;125448;1092;64332;-83
2021/08/01 00:21:26;;;;;;;3.10;2.20;;;;;;;14.36;88.41;100160.52;125501;1093;64278;-82
2021/08/01 00:23:53;;;;;;;3.30;2.40;;;;;;;14.33;88.85;100161.77;125396;1092;64198;-82
2021/08/01 00:26:21;;;;;;;7.87;2.07;;;;;;;14.33;88.68;100155.63;125394;1093;64245;-83
2021/08/01 00:28:48;;;;;;;3.87;2.27;;;;;;;14.30;89.12;100154.17;125442;1092;64326;-82
2021/08/01 00:31:15;;;;;;;4.37;2.70;;;;;;;14.27;88.91;100163.43;125366;1093;64325;-82
2021/08/01 00:33:46;;;;;;;5.45;2.80;;;;;;;14.26;89.64;100169.00;125417;1093;64202;-82
2021/08/01 00:36:14;;;;;;;4.70;3.03;;;;;;;14.27;90.44;100165.28;125257;1091;64269;-82
2021/08/01 00:38:41;;;;;;;12.83;3.83;;;;;;;14.28;90.44;100158.94;125418;1093;64159;-85
2021/08/01 00:41:08;;;;;;;5.37;2.83;;;;;;;14.30;90.07;100153.36;125437;1093;64336;-82
2021/08/01 00:43:35;;;;;;;5.40;2.80;;;;;;;14.34;89.84;100162.58;125483;1093;64409;-81
2021/08/01 00:46:04;;;;;;;5.05;3.15;;;;;;;14.37;90.14;100156.84;125447;1092;64230;-81
2021/08/01 00:48:34;;;;;;;4.37;2.80;;;;;;;14.43;90.30;100151.47;125402;1093;64306;-81
2021/08/01 00:51:02;;;;;;;4.97;2.90;;;;;;;14.50;90.37;100150.61;125233;1093;64352;-82
2021/08/01 00:53:30;;;;;;;4.30;2.70;;;;;;;14.54;89.52;100152.63;125307;1092;64156;-84
2021/08/01 00:56:00;;;;;;;4.27;2.73;;;;;;;14.60;89.81;100157.15;125183;1092;64394;-81
2021/08/01 00:58:27;;;;;;;4.50;2.30;;;;;;;14.65;89.21;100154.64;125342;1092;64295;-82
2021/08/01 01:03:53;;;;;;;3.27;2.50;;;;;;;14.67;88.72;100141.09;125491;1093;64192;-81
2021/08/01 01:06:34;;;;;;;5.20;2.73;;;;;;;14.64;88.39;100142.34;125336;1092;64259;-83
2021/08/01 01:09:07;;;;;;;5.57;2.67;;;;;;;14.62;88.58;100160.42;125354;1092;64841;-83
2021/08/01 01:11:39;;;;;;;7.37;2.80;;;;;;;14.59;88.40;100152.02;125367;1093;64285;-82
2021/08/01 01:14:14;;;;;;;5.33;2.47;;;;;;;14.57;88.90;100148.74;125431;1092;64269;-83
2021/08/01 01:16:44;;;;;;;;;;;;;;;14.57;88.83;100146.08;125288;1091;64387;-81
2021/08/01 01:19:31;;;;;;;6.00;2.53;;;;;;;14.53;89.42;100142.16;125191;1092;64289;-83
2021/08/01 01:22:08;;;;;;;5.17;2.27;;;;;;;14.50;89.01;100139.94;125186;1093;64195;-83
2021/08/01 01:24:39;;;;;;;5.20;2.63;;;;;;;14.46;89.14;100129.67;125176;1092;64305;-83
2021/08/01 01:27:09;;;;;;;5.07;2.73;;;;;;;14.43;89.08;100130.11;125394;1092;64292;-83
2021/08/01 01:30:02;;;;;;;3.40;2.20;;;;;;;14.39;89.49;100125.42;125313;1093;64270;-81
2021/08/01 01:32:52;;;;;;;3.93;2.23;;;;;;;14.32;88.99;100124.63;125253;1093;64278;-81
2021/08/01 01:35:20;;;;;;;6.23;2.40;;;;;;;14.25;89.09;100128.14;125340;1093;64284;-81
2021/08/01 01:37:52;;;;;;;7.07;3.33;;;;;;;14.20;89.56;100121.83;126242;1093;64165;-83
2021/08/01 01:40:21;;;;;;;3.97;2.53;;;;;;;14.16;90.26;100128.61;125449;1092;64265;-81
2021/08/01 01:42:52;;;;;;;4.33;2.70;;;;;;;14.12;89.69;100124.73;125357;1093;64297;-81
2021/08/01 01:45:20;;;;;;;4.47;2.77;;;;;;;14.10;90.76;100124.13;125340;1093;64269;-82
2021/08/01 01:47:52;;;;;;;5.07;2.53;;;;;;;14.06;90.21;100123.72;125274;1093;64255;-81
2021/08/01 01:50:20;;;;;;;5.17;2.83;;;;;;;14.02;90.16;100117.98;126655;1093;62401;-81
2021/08/01 01:52:51;;;;;;;4.80;2.43;;;;;;;14.01;90.49;100112.88;126719;1093;64239;-82
2021/08/01 01:55:20;;;;;;;5.13;3.33;;;;;;;13.98;90.28;100108.80;125403;1092;64275;-82
2021/08/01 01:57:47;;;;;;;4.63;3.07;;;;;;;13.97;90.22;100109.00;125223;1093;64352;-85
2021/08/01 02:00:15;;;;;;;7.07;2.77;;;;;;;13.94;90.48;100099.58;125346;1093;64432;-82
2021/08/01 02:02:43;;;;;;;7.13;2.87;;;;;;;13.92;90.46;100106.13;125226;1092;64160;-82
2021/08/01 02:05:11;;;;;;;4.83;3.00;;;;;;;13.89;90.46;100109.23;125196;1092;64317;-82
2021/08/01 02:07:41;;;;;;;6.20;3.10;;;;;;;13.85;90.81;100116.83;125261;1092;64274;-81
2021/08/01 02:10:24;;;;;;;4.63;2.50;;;;;;;13.82;90.72;100112.73;125208;1093;64281;-82
2021/08/01 02:12:57;;;;;;;6.13;3.20;;;;;;;13.78;90.83;100110.71;125144;1093;64310;-81
2021/08/01 02:15:42;;;;;;;5.57;3.00;;;;;;;13.74;90.39;100107.63;126006;1093;64218;-80
2021/08/01 02:18:17;;;;;;;6.50;3.20;;;;;;;13.68;90.69;100097.81;125695;1093;64268;-81
2021/08/01 02:20:46;;;;;;;6.07;3.30;;;;;;;13.65;90.91;100106.23;125402;1091;64294;-83
2021/08/01 02:23:26;;;;;;;5.30;3.10;;;;;;;13.62;90.73;100107.48;125267;1092;65085;-82
2021/08/01 02:25:56;;;;;;;4.60;3.40;;;;;;;13.60;90.91;100103.36;125334;1093;64344;-83
2021/08/01 02:28:27;;;;;;;5.60;3.23;;;;;;;13.58;90.98;100100.09;125340;1093;64306;-83
2021/08/01 02:30:56;;;;;;;4.23;2.70;;;;;;;13.58;90.94;100110.75;125238;1092;64311;-83
2021/08/01 02:33:29;;;;;;;10.83;4.10;;;;;;;13.55;90.95;100105.84;125396;1093;64215;-81
2021/08/01 02:36:00;;;;;;;4.10;3.25;;;;;;;13.54;90.92;100096.23;125461;1093;64252;-81
2021/08/01 02:38:29;;;;;;;4.53;3.10;;;;;;;13.53;90.84;100091.91;125090;1092;64409;-83
2021/08/01 02:41:01;;;;;;;5.73;3.10;;;;;;;13.51;90.62;100091.30;125277;1092;64307;-82
2021/08/01 02:43:31;;;;;;;4.00;2.67;;;;;;;13.46;90.88;100087.42;125428;1092;64285;-82
2021/08/01 02:46:00;;;;;;;5.13;3.37;;;;;;;13.45;91.16;100083.13;125547;1092;64192;-82
2021/08/01 02:48:33;;;;;;;5.63;2.70;;;;;;;13.48;90.96;100081.89;125350;1093;64235;-83
2021/08/01 02:51:03;;;;;;;6.27;3.63;;;;;;;13.50;90.66;100097.67;125424;1092;64326;-83
2021/08/01 02:53:38;;;;;;;6.27;2.90;;;;;;;13.53;90.88;100095.39;125168;1092;64335;-84
2021/08/01 02:56:09;;;;;;;4.65;3.05;;;;;;;13.56;91.52;100094.18;125419;1093;64215;-83
2021/08/01 02:58:38;;;;;;;5.17;2.93;;;;;;;13.61;91.41;100097.02;125331;1091;64610;-83
2021/08/01 03:01:06;;;;;;;3.83;2.90;;;;;;;13.65;91.22;100101.72;125435;1093;64285;-84
2021/08/01 03:03:36;;;;;;;4.67;3.00;;;;;;;13.72;91.24;100101.70;125260;1093;64668;-81
2021/08/01 03:06:06;;;;;;;5.40;3.30;;;;;;;13.79;91.00;100113.17;125333;1093;65101;-83
2021/08/01 03:08:34;;;;;;;7.40;3.90;;;;;;;13.87;91.03;100109.44;125276;1092;64303;-86
2021/08/01 03:11:01;;;;;;;6.10;3.10;;;;;;;13.94;90.78;100114.73;125314;1093;64195;-82
2021/08/01 03:13:29;;;;;;;3.90;2.77;;;;;;;14.01;90.57;100115.55;125246;1092;64333;-82
2021/08/01 03:15:56;;;;;;;3.87;2.43;;;;;;;14.06;90.21;100108.53;125046;1093;64983;-83
2021/08/01 03:18:24;;;;;;;4.50;2.43;;;;;;;14.12;90.12;100106.06;125776;1093;64265;-82
2021/08/01 03:20:51;;;;;;;5.90;3.55;;;;;;;14.14;89.65;100115.48;125374;1093;64275;-84
2021/08/01 03:23:19;;;;;;;3.70;2.70;;;;;;;14.16;89.56;100110.75;126548;1092;64329;-89
2021/08/01 03:25:46;;;;;;;4.03;2.87;;;;;;;14.17;89.45;100120.38;125149;1093;64297;-80
2021/08/01 03:28:13;;;;;;;3.40;2.70;;;;;;;14.19;89.03;100117.51;125411;1093;64464;-84
2021/08/01 03:30:40;;;;;;;3.93;2.53;;;;;;;14.19;89.08;100128.18;125368;1093;64195;-82
2021/08/01 03:33:08;;;;;;;7.07;3.20;;;;;;;14.18;89.39;100146.04;125360;1093;64246;-84
2021/08/01 03:35:35;;;;;;;5.03;2.83;;;;;;;14.19;89.22;100146.84;125727;1092;64186;-81
2021/08/01 03:38:02;;;;;;;4.37;2.97;;;;;;;14.20;88.83;100151.17;125362;1093;64273;-83
2021/08/01 03:40:29;;;;;;;5.60;3.27;;;;;;;14.20;88.93;100146.65;125253;1092;64275;-80
2021/08/01 03:42:56;;;;;;;3.20;2.30;;;;;;;14.21;88.77;100150.94;125113;1093;64261;-84
2021/08/01 03:45:24;;;;;;;5.43;2.83;;;;;;;14.22;89.06;100144.59;125160;1093;64352;-85
2021/08/01 03:47:51;;;;;;;5.30;3.13;;;;;;;14.22;89.38;100152.59;125431;1093;64313;-83
2021/08/01 03:50:18;;;;;;;5.27;3.43;;;;;;;14.22;89.17;100146.44;125101;1093;64154;-85
2021/08/01 03:52:45;;;;;;;5.13;3.20;;;;;;;14.22;89.96;100154.45;125220;1092;65488;-83
2021/08/01 03:55:12;;;;;;;5.73;3.50;;;;;;;14.26;89.48;100152.99;125172;1092;64192;-83
2021/08/01 03:57:39;;;;;;;6.03;3.53;;;;;;;14.27;89.86;100147.42;125152;1093;64380;-85
2021/08/01 04:00:07;;;;;;;5.60;3.20;;;;;;;14.30;89.84;100151.51;125272;1093;64291;-85
2021/08/01 04:02:38;;;;;;;6.13;3.50;;;;;;;14.32;89.70;100143.30;125428;1093;64192;-85
2021/08/01 04:05:09;;;;;;;5.33;3.30;;;;;;;14.33;89.58;100151.10;125715;1092;64333;-84
2021/08/01 04:07:36;;;;;;;4.77;2.87;;;;;;;14.32;89.99;100153.97;125329;1093;64276;-84
2021/08/01 04:10:04;;;;;;;5.80;3.87;;;;;;;14.33;89.96;100155.63;125201;1092;64269;-84
2021/08/01 04:12:32;;;;;;;5.60;3.30;;;;;;;14.33;90.31;100159.11;125443;1093;64274;-83
2021/08/01 04:15:00;;;;;;;5.40;3.80;;;;;;;14.33;90.05;100156.44;125274;1092;64227;-82
2021/08/01 04:17:29;;;;;;;7.43;3.10;;;;;;;14.35;90.16;100153.56;125090;1093;64190;-81
2021/08/01 04:19:56;;;;;;;4.97;3.13;;;;;;;14.37;90.23;100148.84;125411;1093;64377;-83
2021/08/01 04:22:25;;;;;;;5.73;3.83;;;;;;;14.38;90.40;100147.79;125114;1092;64276;-83
2021/08/01 04:24:58;;;;;;;7.00;3.93;;;;;;;14.41;90.45;100148.19;125386;1092;64323;-85
2021/08/01 04:27:25;;;;;;;4.40;3.37;;;;;;;14.43;90.42;100153.33;125605;1091;64264;-82
2021/08/01 04:29:52;;;;;;;5.00;3.33;;;;;;;14.45;89.96;100149.40;125655;1093;64268;-85
2021/08/01 04:32:19;;;;;;;6.05;2.50;;;;;;;14.46;89.98;100151.02;125493;1091;64374;-84
2021/08/01 04:34:46;;;;;;;6.93;3.07;;;;;;;14.49;89.85;100149.77;125273;1093;64302;-85
2021/08/01 04:37:14;;;;;;;5.93;4.03;;;;;;;14.51;89.88;100158.38;125147;1092;64358;-83
2021/08/01 04:39:41;;;;;;;8.43;3.90;;;;;;;14.55;89.82;100162.30;125242;1093;64237;-82
2021/08/01 04:42:08;;;;;;;6.33;3.83;;;;;;;14.58;89.30;100159.22;125261;1091;64297;-82
2021/08/01 04:44:35;;;;;;;5.50;3.73;;;;;;;14.61;89.40;100150.77;125928;1093;64224;-82
2021/08/01 04:47:03;;;;;;;7.40;3.77;;;;;;;14.67;89.59;100149.91;125441;1093;64253;-83
2021/08/01 04:49:30;;;;;;;5.77;3.90;;;;;;;14.75;88.92;100153.34;125236;1093;64287;-82
2021/08/01 04:51:57;;;;;;;10.10;3.80;;;;;;;14.83;88.80;100145.08;125349;1092;64235;-86
2021/08/01 04:54:25;;;;;;;9.30;3.80;;;;;;;14.95;88.48;100142.53;125117;1093;64758;-83
2021/08/01 04:56:52;;;;;;;5.60;3.77;;;;;;;15.06;88.21;100153.32;125217;1093;64285;-83
2021/08/01 04:59:21;;;;;;;5.97;3.70;;;;;;;15.16;87.56;100144.02;125112;1093;64330;-82
2021/08/01 05:01:48;;;;;;;7.20;3.47;;;;;;;15.26;86.89;100139.00;125163;1092;64317;-85
2021/08/01 05:04:16;;;;;;;6.40;3.85;;;;;;;15.37;86.53;100134.79;125137;1092;64268;-83
2021/08/01 05:06:43;;;;;;;6.17;3.80;;;;;;;15.47;86.19;100135.91;125081;1092;64221;-83
2021/08/01 05:09:10;;;;;;;7.30;4.50;;;;;;;15.58;85.44;100136.23;125064;1093;64351;-84
2021/08/01 05:11:37;;;;;;;3.87;2.53;;;;;;;15.68;85.43;100141.86;125122;1093;64266;-84
2021/08/01 05:14:04;;;;;;;6.93;4.63;;;;;;;15.82;85.33;100137.23;125108;1093;64291;-83
2021/08/01 05:16:33;;;;;;;6.33;4.00;;;;;;;15.92;84.70;100142.03;125259;1093;64288;-82
2021/08/01 05:19:00;;;;;;;7.70;4.67;;;;;;;16.04;84.25;100140.25;126089;1093;64288;-82
2021/08/01 05:21:27;;;;;;;5.43;3.83;;;;;;;16.15;83.72;100138.67;125828;1093;64250;-83
2021/08/01 05:23:55;;;;;;;6.80;3.70;;;;;;;16.27;83.52;100140.37;126009;1093;64429;-82
2021/08/01 05:26:22;;;;;;;5.23;3.23;;;;;;;16.37;82.30;100145.19;125296;1092;64220;-82
2021/08/01 05:28:50;;;;;;;9.07;3.90;;;;;;;16.46;82.26;100134.98;125707;1093;64327;-83
2021/08/01 05:31:17;;;;;;;6.37;4.43;;;;;;;16.50;81.62;100133.48;125135;1092;64256;-82
2021/08/01 05:33:45;;;;;;;9.03;4.73;;;;;;;16.57;81.64;100134.19;125307;1093;64320;-85
2021/08/01 05:36:12;;;;;;;6.30;4.13;;;;;;;16.61;81.25;100143.41;125188;1093;64850;-86
2021/08/01 05:38:39;;;;;;;5.77;3.90;;;;;;;16.64;81.38;100134.09;125304;1093;64345;-83
2021/08/01 05:41:07;;;;;;;5.13;3.30;;;;;;;16.64;81.08;100142.13;125314;1092;64935;-82
2021/08/01 05:43:39;;;;;;;5.10;3.77;;;;;;;16.62;80.34;100133.53;125209;1093;64323;-84
2021/08/01 05:46:12;;;;;;;5.50;3.27;;;;;;;16.64;80.25;100134.09;125317;1093;64227;-84
2021/08/01 05:48:39;;;;;;;4.77;3.33;;;;;;;16.62;80.31;100134.34;125315;1092;64365;-81
2021/08/01 05:51:07;;;;;;;6.10;4.00;;;;;;;16.66;80.25;100135.52;125253;1092;64234;-82
2021/08/01 05:53:38;;;;;;;4.07;3.17;;;;;;;16.69;80.00;100132.38;125416;1093;64291;-82
2021/08/01 05:56:09;;;;;;;7.40;4.00;;;;;;;16.73;79.92;100134.61;125257;1092;64285;-82
2021/08/01 05:58:38;;;;;;;10.53;4.13;;;;;;;16.76;79.83;100131.45;125315;1092;64350;-82
2021/08/01 06:01:07;;;;;;;4.93;3.67;;;;;;;16.77;79.54;100127.75;125319;1093;64329;-83
2021/08/01 06:03:35;;;;;;;5.73;3.17;;;;;;;16.79;79.65;100123.79;125315;1093;64188;-83
2021/08/01 06:06:12;;;;;;;5.87;3.60;;;;;;;16.79;79.38;100121.11;125255;1093;64233;-82
2021/08/01 06:08:41;;;;;;;5.70;3.73;;;;;;;16.75;78.86;100129.84;125227;1093;64269;-86
2021/08/01 06:11:09;;;;;;;7.20;3.90;;;;;;;16.74;78.66;100128.19;125206;1093;64891;-81
2021/08/01 06:13:37;;;;;;;5.10;3.07;;;;;;;16.71;78.95;100124.92;125347;1093;64282;-83
2021/08/01 06:16:09;;;;;;;5.70;3.23;;;;;;;16.71;78.95;100124.92;125305;1093;64220;-85
2021/08/01 06:18:38;;;;;;;5.27;4.03;;;;;;;16.70;79.03;100125.14;125079;1092;64377;-83
2021/08/01 06:21:07;;;;;;;5.10;3.70;;;;;;;16.72;78.73;100131.09;125165;1093;64310;-84
2021/08/01 06:23:36;;;;;;;7.17;4.33;;;;;;;16.74;78.92;100128.19;125366;1093;64227;-79
2021/08/01 06:26:04;;;;;;;6.50;4.17;;;;;;;16.77;78.80;100133.11;125344;1093;64288;-82
2021/08/01 06:28:32;;;;;;;6.80;4.00;;;;;;;16.79;78.62;100142.54;125273;1093;64165;-85
2021/08/01 06:31:04;;;;;;;6.40;4.70;;;;;;;16.80;78.69;100137.99;125101;1093;64341;-83
2021/08/01 06:33:33;;;;;;;6.57;4.77;;;;;;;16.79;78.71;100142.54;125377;1093;64330;-83
2021/08/01 06:36:04;;;;;;;7.75;3.95;;;;;;;16.85;78.61;100143.49;125256;1092;64374;-83
2021/08/01 06:38:31;;;;;;;5.30;3.83;;;;;;;16.92;78.87;100138.88;125085;1093;64281;-82
2021/08/01 06:40:58;;;;;;;4.50;3.00;;;;;;;16.98;78.66;100135.27;125666;1093;64285;-81
2021/08/01 06:43:25;;;;;;;4.57;3.57;;;;;;;16.94;77.42;100139.45;125741;1092;64272;-80
2021/08/01 06:45:52;;;;;;;7.73;4.00;;;;;;;16.97;77.75;100144.34;125171;1093;64400;-82
2021/08/01 06:48:20;;;;;;;7.33;3.80;;;;;;;16.96;77.65;100137.36;125978;1093;64195;-82
2021/08/01 06:50:48;;;;;;;6.87;4.70;;;;;;;16.99;77.57;100139.56;125383;1093;64269;-83
2021/08/01 06:53:16;;;;;;;4.90;3.43;;;;;;;17.07;77.77;100141.10;125339;1092;64372;-83
2021/08/01 06:55:52;;;;;;;6.60;3.47;;;;;;;17.15;77.32;100135.41;125458;1092;64288;-82
2021/08/01 06:58:20;;;;;;;7.27;4.60;;;;;;;17.22;76.82;100135.29;125203;1091;64396;-83
2021/08/01 07:00:52;;;;;;;7.00;4.33;;;;;;;17.29;76.06;100135.98;125096;1093;64275;-84
2021/08/01 07:03:19;;;;;;;4.87;4.13;;;;;;;17.35;75.77;100134.24;125465;1093;64416;-83
2021/08/01 07:05:47;;;;;;;5.77;3.63;;;;;;;17.40;75.57;100137.84;125313;1093;64277;-83
2021/08/01 07:08:14;;;;;;;5.27;3.93;;;;;;;17.48;75.06;100132.13;125361;1093;64268;-83
2021/08/01 07:10:58;;;;;;;6.20;3.23;;;;;;;17.56;75.01;100135.52;125435;1092;64365;-87
2021/08/01 07:13:25;;;;;;;5.53;3.27;;;;;;;17.58;74.11;100134.23;125273;1093;64192;-80
2021/08/01 07:15:52;;;;;;;7.97;3.77;;;;;;;17.61;74.40;100135.62;125133;1093;64269;-80
2021/08/01 07:18:20;;;;;;;5.80;3.57;;;;;;;17.67;73.75;100132.80;125020;1093;64297;-77
2021/08/01 07:20:47;;;;;;;5.50;3.77;;;;;;;17.77;73.86;100129.53;124870;1093;64288;-79
2021/08/01 07:23:14;;;;;;;5.23;3.00;;;;;;;17.82;72.70;100128.83;124763;1093;64362;-77
2021/08/01 07:25:42;;;;;;;7.43;4.10;;;;;;;17.90;72.59;100134.66;124993;1093;64681;-79
2021/08/01 07:28:09;;;;;;;8.40;3.73;;;;;;;17.96;72.38;100129.39;124882;1093;64302;-76
2021/08/01 07:30:36;;;;;;;5.87;3.17;;;;;;;18.06;71.97;100118.87;124861;1092;64271;-77
2021/08/01 07:33:03;;;;;;;3.13;2.30;;;;;;;18.23;72.14;100108.19;124733;1092;64317;-79
2021/08/01 07:35:30;;;;;;;5.70;3.20;;;;;;;18.40;71.07;100124.34;124756;1093;64706;-78
2021/08/01 07:37:57;;;;;;;4.30;3.10;;;;;;;18.54;69.94;100121.11;124807;1092;64199;-81
2021/08/01 07:40:25;;;;;;;3.60;2.30;;;;;;;18.60;69.07;100129.28;124804;1092;64364;-78
2021/08/01 07:42:52;;;;;;;4.47;3.30;;;;;;;18.66;68.39;100123.75;125444;1092;64294;-83
2021/08/01 07:45:25;;;;;;;4.30;2.60;;;;;;;18.78;68.52;100114.80;124885;1092;64316;-79
2021/08/01 07:47:52;;;;;;;4.77;3.40;;;;;;;18.95;67.75;100121.83;125247;1092;64345;-82
2021/08/01 07:50:19;;;;;;;4.97;2.80;;;;;;;19.04;67.69;100116.88;125098;1092;64313;-80
2021/08/01 07:52:46;;;;;;;5.33;2.83;;;;;;;19.09;66.93;100111.58;125235;1093;64252;-79
2021/08/01 07:55:15;;;;;;;5.40;3.03;;;;;;;19.12;66.84;100121.02;124970;1092;64349;-80
2021/08/01 07:57:44;;;;;;;5.53;2.67;;;;;;;19.17;67.44;100122.96;124926;1093;64249;-80
2021/08/01 08:00:13;;;;;;;5.37;2.10;;;;;;;19.22;66.63;100117.67;124999;1093;64381;-79
2021/08/01 08:02:41;;;;;;;5.67;3.17;;;;;;;19.30;66.66;100122.64;124988;1093;64387;-79
2021/08/01 08:05:10;;;;;;;3.55;2.50;;;;;;;19.51;65.35;100119.17;124837;1093;64221;-79
2021/08/01 08:07:37;;;;;;;3.63;1.83;;;;;;;19.60;63.71;100122.25;124967;1093;64331;-79
2021/08/01 08:10:06;;;;;;;5.30;2.43;;;;;;;19.71;63.24;100113.27;124989;1093;64211;-79
2021/08/01 08:12:34;;;;;;;3.75;2.50;;;;;;;19.83;62.03;100129.31;124816;1093;64303;-82
2021/08/01 08:15:02;;;;;;;3.70;2.60;;;;;;;19.92;61.47;100118.92;124814;1093;64195;-80
2021/08/01 08:17:33;;;;;;;4.47;2.47;;;;;;;20.02;62.48;100113.66;125016;1092;64285;-78
2021/08/01 08:20:02;;;;;;;3.77;2.70;;;;;;;20.10;62.87;100121.30;125083;1092;64291;-78
2021/08/01 08:22:30;;;;;;;6.03;2.40;;;;;;;20.02;61.80;100123.59;124919;1093;64233;-80
2021/08/01 08:24:57;;;;;;;3.07;2.00;;;;;;;19.94;61.80;100117.59;124887;1093;64859;-78
2021/08/01 08:27:27;;;;;;;3.20;2.20;;;;;;;19.90;62.12;100111.09;124916;1093;64310;-80
2021/08/01 08:29:55;;;;;;;3.00;2.13;;;;;;;19.88;61.68;100109.72;124950;1093;64338;-79
2021/08/01 08:32:22;;;;;;;4.93;2.40;;;;;;;19.90;60.91;100127.23;124948;1093;64691;-80
2021/08/01 08:34:49;;;;;;;4.07;2.80;;;;;;;20.06;61.27;100108.56;125133;1093;64923;-80
2021/08/01 08:37:16;;;;;;;3.07;2.07;;;;;;;20.23;60.53;100114.70;125190;1092;64246;-79
2021/08/01 08:39:43;;;;;;;3.47;2.13;;;;;;;20.40;59.71;100103.00;125113;1093;64268;-81
2021/08/01 08:42:15;;;;;;;5.17;3.10;;;;;;;20.56;59.97;100112.86;124971;1093;64221;-78
2021/08/01 08:44:44;;;;;;;8.30;3.00;;;;;;;20.83;59.74;100112.06;128272;1093;61876;-79
2021/08/01 08:47:19;;;;;;;2.90;2.30;;;;;;;20.95;59.42;100113.51;126541;1093;64216;-81
2021/08/01 08:49:50;;;;;;;3.03;2.43;;;;;;;20.67;57.95;100113.80;125293;1093;64361;-81
2021/08/01 08:52:18;;;;;;;4.63;2.50;;;;;;;20.45;59.26;100111.14;125104;1093;64171;-81
2021/08/01 08:54:48;;;;;;;2.83;1.93;;;;;;;20.28;59.53;100109.36;125097;1093;64285;-82
2021/08/01 08:57:26;;;;;;;3.40;2.40;;;;;;;20.30;59.58;100119.89;125227;1093;64269;-80
2021/08/01 08:59:59;;;;;;;4.23;2.40;;;;;;;20.34;58.74;100108.34;125399;1093;64307;-85
2021/08/01 09:02:27;;;;;;;3.87;2.27;;;;;;;20.60;59.10;100103.23;125177;1093;64307;-84
2021/08/01 09:04:57;;;;;;;2.70;1.80;;;;;;;20.87;58.91;100108.59;125162;1093;64383;-83
2021/08/01 09:07:25;;;;;;;4.13;2.43;;;;;;;20.97;57.52;100105.97;125337;1093;64249;-81
2021/08/01 09:09:53;;;;;;;2.30;1.87;;;;;;;21.08;57.09;100108.72;125700;1093;64195;-78
2021/08/01 09:12:21;;;;;;;5.40;2.50;;;;;;;21.16;56.69;100110.94;125425;1093;64384;-80
2021/08/01 09:14:48;;;;;;;3.33;1.80;;;;;;;21.34;55.46;100115.92;125193;1093;64368;-80
2021/08/01 09:17:39;;;;;;;4.33;2.60;;;;;;;21.56;55.71;100105.00;125147;1093;64272;-82
2021/08/01 09:20:33;;;;;;;4.43;2.73;;;;;;;21.48;55.49;100112.78;125416;1092;64271;-81
2021/08/01 09:23:06;;;;;;;3.90;2.60;;;;;;;21.29;56.41;100109.67;125200;1093;64288;-82
2021/08/01 09:25:35;;;;;;;6.43;2.63;;;;;;;21.04;57.02;100105.75;125830;1093;64393;-83
2021/08/01 09:28:06;;;;;;;3.93;2.50;;;;;;;20.93;57.49;100117.51;125166;1092;64314;-81
2021/08/01 09:30:57;;;;;;;3.60;2.57;;;;;;;20.85;57.68;100107.22;125303;1093;64409;-82
2021/08/01 09:33:39;;;;;;;3.00;2.20;;;;;;;20.77;57.52;100109.30;126325;1092;64271;-80
2021/08/01 09:36:15;;;;;;;5.17;2.40;;;;;;;20.66;57.77;100110.30;125745;1093;64272;-83
2021/08/01 09:38:49;;;;;;;6.00;2.87;;;;;;;20.63;58.33;100112.67;126573;1093;63134;-81
2021/08/01 09:41:25;;;;;;;4.63;2.80;;;;;;;20.67;58.57;100109.21;125463;1093;64414;-79
2021/08/01 09:43:57;;;;;;;4.13;1.77;;;;;;;20.82;58.23;100110.41;125271;1093;64287;-81
2021/08/01 09:46:45;;;;;;;4.10;2.47;;;;;;;20.96;57.44;100106.22;125401;1093;64214;-80
2021/08/01 09:49:19;;;;;;;3.25;2.10;;;;;;;20.93;56.10;100112.11;125386;1093;64221;-80
2021/08/01 09:51:54;;;;;;;2.78;1.80;;;;;;;20.93;57.17;100107.56;125164;1093;64140;-82
2021/08/01 09:54:23;;;;;;;5.50;2.77;;;;;;;20.98;57.32;100109.48;125217;1093;64406;-82
2021/08/01 09:57:03;;;;;;;3.00;2.10;;;;;;;21.06;58.29;100110.86;124976;1093;64198;-84
2021/08/01 09:59:32;;;;;;;4.60;2.10;;;;;;;21.07;57.52;100116.00;125245;1093;64337;-84
2021/08/01 10:02:04;;;;;;;3.63;2.50;;;;;;;21.20;57.37;100119.33;125672;1093;64272;-81
2021/08/01 10:04:40;;;;;;;3.30;2.45;;;;;;;21.26;56.33;100110.20;125306;1092;64378;-81
2021/08/01 10:07:15;;;;;;;3.10;2.30;;;;;;;21.34;55.76;100102.44;125394;1093;64272;-81
2021/08/01 10:09:44;;;;;;;3.25;2.15;;;;;;;21.48;54.79;100096.59;125230;1093;64271;-80
2021/08/01 10:12:13;;;;;;;4.23;2.50;;;;;;;21.58;53.79;100099.34;125226;1093;64272;-81
2021/08/01 10:14:44;;;;;;;4.10;2.63;;;;;;;21.79;54.25;100092.95;125170;1093;64195;-81
2021/08/01 10:17:11;;;;;;;3.55;2.40;;;;;;;21.94;52.90;100100.30;125351;1093;64411;-79
2021/08/01 10:19:38;;;;;;;3.40;1.90;;;;;;;22.10;51.74;100094.94;125496;1092;64364;-81
2021/08/01 10:22:06;;;;;;;3.70;2.20;;;;;;;22.28;51.73;100082.88;125604;1092;64302;-80
2021/08/01 10:24:46;;;;;;;4.13;2.23;;;;;;;22.30;51.07;100076.11;125438;1093;64389;-80
2021/08/01 10:27:16;;;;;;;3.80;2.43;;;;;;;22.13;52.78;100091.73;125824;1092;64292;-80
2021/08/01 10:29:47;;;;;;;3.00;1.97;;;;;;;22.20;53.04;100084.16;126360;1093;64224;-81
2021/08/01 10:32:19;;;;;;;3.37;2.27;;;;;;;22.24;52.92;100089.89;125846;1093;64276;-81
2021/08/01 10:34:47;;;;;;;4.63;2.40;;;;;;;22.17;53.20;100082.01;125543;1093;64314;-81
2021/08/01 10:37:22;;;;;;;2.70;1.80;;;;;;;22.04;52.69;100067.13;125501;1093;64313;-80
2021/08/01 10:39:49;;;;;;;2.80;1.90;;;;;;;21.98;52.31;100085.20;125349;1093;64291;-81
2021/08/01 10:42:18;;;;;;;3.23;1.40;;;;;;;21.88;52.63;100068.95;125335;1093;64412;-82
2021/08/01 10:44:46;;;;;;;4.87;1.87;;;;;;;21.98;51.43;100068.99;125421;1093;64402;-85
2021/08/01 10:47:14;;;;;;;2.10;1.70;;;;;;;22.15;52.16;100062.55;125387;1093;64419;-83
2021/08/01 10:49:44;;;;;;;3.10;1.65;;;;;;;22.20;51.03;100054.45;125331;1092;64291;-81
2021/08/01 10:52:14;;;;;;;3.87;1.90;;;;;;;22.14;50.57;100063.62;125544;1092;64285;-79
2021/08/01 10:55:03;;;;;;;3.50;1.93;;;;;;;22.02;51.67;100063.08;125243;1093;64269;-81
2021/08/01 10:57:31;;;;;;;4.13;1.77;;;;;;;21.78;52.10;100066.22;125589;1093;65182;-81
2021/08/01 11:00:07;;;;;;;4.17;2.23;;;;;;;21.59;52.87;100060.47;125467;1093;64277;-84
2021/08/01 11:02:36;;;;;;;3.97;2.00;;;;;;;21.45;53.86;100060.16;125409;1092;64288;-81
2021/08/01 11:05:36;;;;;;;2.37;1.60;;;;;;;21.34;53.21;100053.06;125468;1093;64199;-81
2021/08/01 11:08:05;;;;;;;3.80;1.60;;;;;;;21.50;52.03;100051.27;125303;1092;64245;-81
2021/08/01 11:10:33;;;;;;;2.43;1.40;;;;;;;21.86;51.27;100048.70;125300;1093;65442;-81
2021/08/01 11:13:21;;;;;;;2.50;1.30;;;;;;;22.20;51.67;100038.23;125405;1092;64361;-81
2021/08/01 11:15:48;;;;;;;2.13;1.40;;;;;;;22.48;49.78;100038.83;125336;1093;64310;-83
2021/08/01 11:18:28;;;;;;;3.20;1.57;;;;;;;22.47;49.05;100053.44;125209;1092;64291;-82
2021/08/01 11:20:56;;;;;;;3.77;1.63;;;;;;;22.38;48.90;100043.16;125219;1092;64314;-81
2021/08/01 11:23:46;;;;;;;2.27;1.30;;;;;;;22.29;48.20;100047.48;125446;1092;64404;-81
2021/08/01 11:26:19;;;;;;;2.43;1.60;;;;;;;22.20;48.29;100036.34;125513;1093;64301;-82
2021/08/01 11:29:04;;;;;;;2.20;1.20;;;;;;;22.37;48.47;100033.41;125570;1092;64275;-83
2021/08/01 11:31:32;;;;;;;1.70;1.20;;;;;;;22.62;47.23;100042.63;125488;1093;64288;-81
2021/08/01 11:34:15;;;;;;;2.75;1.20;;;;;;;22.75;47.03;100025.84;125133;1092;64163;-78